This is the latest recevied weather packets stored in our database for station/object JM1YTT-13. If no packets are shown the sender has not sent any weather packets the latest 10 day(s).
| Time | Temp. | Humidity | Pressure | Rain* | Wind** | Luminosity | Snow |
|---|---|---|---|---|---|---|---|
| 1788421363 | 26.11° C | 91% | 1009.1 hPa | 0 mm | - | - | - |
| 1788419564 | 28.33° C | 80% | 1008.6 hPa | 0 mm | - | - | - |
| 1788417764 | 28.89° C | 78% | 1007.5 hPa | 0 mm | - | - | - |
| 1788415963 | 28.89° C | 79% | 1007.9 hPa | 0 mm | - | - | - |
| 1788414164 | 29.44° C | 75% | 1007.7 hPa | 0 mm | - | - | - |
| 1788412363 | 30.56° C | 71% | 1008.1 hPa | 0 mm | - | - | - |
| 1788410563 | 31.11° C | 71% | 1008.1 hPa | 0 mm | - | - | - |
| 1788408763 | 30.56° C | 71% | 1008 hPa | 0 mm | - | - | - |
| 1788406963 | 31.11° C | 70% | 1008.1 hPa | 0 mm | - | - | - |
| 1788405163 | 30.56° C | 69% | 1008.2 hPa | 0 mm | - | - | - |
| 1788365563 | 23.89° C | 93% | 1010.8 hPa | 0 mm | - | - | - |
| 1788358364 | 24.44° C | 92% | 1011.5 hPa | 0 mm | - | - | - |
| 1788354763 | 25° C | 91% | 1011.4 hPa | 0 mm | - | - | - |
| 1788351163 | 25° C | 90% | 1011.7 hPa | 0 mm | - | - | - |
| 1788347563 | 25.56° C | 89% | 1011.9 hPa | 0 mm | - | - | - |
| 1788343963 | 25.56° C | 88% | 1011.5 hPa | 0 mm | - | - | - |
| 1788340363 | 26.67° C | 86% | 1011.3 hPa | 0 mm | - | - | - |
| 1788338563 | 26.67° C | 84% | 1011.2 hPa | 0 mm | - | - | - |
| 1788336763 | 27.78° C | 81% | 1011 hPa | 0 mm | - | - | - |
| 1788334963 | 28.33° C | 77% | 1011 hPa | 0 mm | - | - | - |
| 1788333163 | 28.89° C | 74% | 1010.8 hPa | 0 mm | - | - | - |
| 1788331363 | 30° C | 72% | 1010.7 hPa | 0 mm | - | - | - |
| 1788329563 | 30.56° C | 71% | 1010.7 hPa | 0 mm | - | - | - |
| 1788327763 | 31.11° C | 70% | 1010.9 hPa | 0 mm | - | - | - |
| 1788297163 | 22.78° C | 95% | 1013.2 hPa | 0 mm | - | - | - |
* Rain latest hour (hover to see other rain measurements)
** Current wind speed in m/s (hover to see current wind gust speed)